Prudhoe, United Kingdom
Current Conditions -  °F | °C
As of 8:50 AM on Sunday 21 Dec 2014 (Local Time) from EGNT Reporting Station
Rain Showers Rain Showers  
Wind Chill: 41°   Ceiling: 2500
Heat Index: 46°   Visibility: 6mi
Dew Point: 41°   Wind: 12mph
Humidity: 81%   Direction: 220°SW
Pressure: 29.97"   Gusts: NA
Location:  54.96°N, 1.85°W
Report Text: EGNT 210850Z 22010KT 9999 VCSH BKN025 08/05 Q1015
Loading
Personal Weather Stations






























Interactive Weather Map New forecast layout! Learn more

10-Day Weather Forecast

Advertisements
Track Severe Weather on mobile